Time;durP1;ratioP1;P1;durP2;ratioP2;P2;SDS_P1;SDS_P2;PMS_P1;PMS_P2;Temp;Humidity;BMP_temperature;BMP_pressure;BME280_temperature;BME280_humidity;BME280_pressure;Samples;Min_cycle;Max_cycle;Signal;HPM_P1;HPM_P2
2024/01/24 00:01:39;;;;;;;2.23;1.67;;;22.20;52.60;;;;;;5044252;28;20465;-71
2024/01/24 00:04:08;;;;;;;2.53;1.60;;;22.20;52.50;;;;;;5043409;28;20447;-70
2024/01/24 00:06:38;;;;;;;4.00;1.63;;;22.20;52.50;;;;;;5048234;28;20523;-70
2024/01/24 00:09:06;;;;;;;2.17;1.97;;;22.20;52.50;;;;;;5045522;28;20584;-70
2024/01/24 00:11:34;;;;;;;2.77;1.40;;;22.20;52.50;;;;;;5047830;28;20470;-70
2024/01/24 00:14:04;;;;;;;3.53;2.20;;;22.20;52.40;;;;;;5037513;28;20457;-70
2024/01/24 00:16:32;;;;;;;2.33;1.50;;;22.20;52.40;;;;;;5039654;28;20447;-70
2024/01/24 00:19:01;;;;;;;2.67;1.80;;;22.20;52.40;;;;;;5043632;28;20463;-70
2024/01/24 00:21:29;;;;;;;2.50;1.40;;;22.20;52.40;;;;;;5041776;28;20471;-70
2024/01/24 00:23:58;;;;;;;2.10;1.87;;;22.20;52.40;;;;;;5045510;28;20489;-71
2024/01/24 00:26:27;;;;;;;1.90;1.70;;;22.20;52.40;;;;;;5045188;28;20473;-70
2024/01/24 00:28:55;;;;;;;1.63;1.53;;;22.20;52.20;;;;;;5043713;28;20462;-70
2024/01/24 00:31:25;;;;;;;2.10;1.60;;;22.20;52.30;;;;;;5046515;28;20471;-70
2024/01/24 00:33:53;;;;;;;2.27;1.57;;;22.20;52.20;;;;;;5055989;28;20444;-70
2024/01/24 00:36:23;;;;;;;1.50;1.40;;;22.20;52.20;;;;;;5060942;28;20460;-70
2024/01/24 00:38:51;;;;;;;3.17;1.63;;;22.20;52.00;;;;;;5057647;28;20469;-70
2024/01/24 00:41:19;;;;;;;1.40;1.00;;;22.20;52.10;;;;;;5056693;28;20457;-70
2024/01/24 00:43:48;;;;;;;2.20;1.17;;;22.20;52.20;;;;;;5042850;28;20465;-70
2024/01/24 00:46:16;;;;;;;1.33;1.23;;;22.20;52.20;;;;;;5056130;28;20989;-70
2024/01/24 00:48:46;;;;;;;2.27;1.57;;;22.20;52.10;;;;;;5054840;28;20527;-70
2024/01/24 00:51:14;;;;;;;1.70;1.07;;;22.20;52.20;;;;;;5053752;28;20476;-70
2024/01/24 00:53:49;;;;;;;3.60;1.30;;;22.20;52.20;;;;;;5052460;28;20457;-70
2024/01/24 00:56:18;;;;;;;1.70;1.17;;;22.20;52.20;;;;;;5046538;28;20454;-70
2024/01/24 00:58:46;;;;;;;4.50;1.73;;;22.20;52.10;;;;;;5057034;28;20453;-71
2024/01/24 01:01:14;;;;;;;1.23;1.13;;;22.20;52.00;;;;;;5048611;28;20458;-70
2024/01/24 01:03:42;;;;;;;3.87;1.87;;;22.20;52.00;;;;;;5073954;28;20460;-70
2024/01/24 01:06:12;;;;;;;2.10;1.90;;;22.20;52.00;;;;;;5056432;28;20438;-70
2024/01/24 01:08:40;;;;;;;1.40;1.30;;;22.20;52.00;;;;;;5043170;28;20502;-70
2024/01/24 01:11:09;;;;;;;1.27;1.10;;;22.20;51.90;;;;;;5051238;28;20474;-70
2024/01/24 01:13:37;;;;;;;2.37;1.37;;;22.20;51.80;;;;;;5054056;28;20461;-70
2024/01/24 01:16:06;;;;;;;2.33;1.07;;;22.10;51.90;;;;;;5056541;28;20466;-70
2024/01/24 01:18:35;;;;;;;1.10;1.00;;;22.10;51.80;;;;;;5057234;28;20469;-71
2024/01/24 01:21:03;;;;;;;2.03;1.50;;;22.20;51.70;;;;;;5043689;28;20870;-71
2024/01/24 01:23:33;;;;;;;1.83;1.20;;;22.10;51.80;;;;;;5055037;28;20507;-70
2024/01/24 01:26:01;;;;;;;1.20;1.10;;;22.10;51.80;;;;;;5051226;28;20461;-70
2024/01/24 01:28:29;;;;;;;1.30;1.20;;;22.10;51.80;;;;;;5051008;28;20510;-70
2024/01/24 01:30:57;;;;;;;1.70;1.20;;;22.10;51.80;;;;;;5050527;28;20465;-70
2024/01/24 01:33:26;;;;;;;1.67;1.20;;;22.10;51.80;;;;;;5054377;28;20449;-70
2024/01/24 01:35:54;;;;;;;1.80;1.40;;;22.10;51.70;;;;;;5055755;28;20438;-71
2024/01/24 01:38:42;;;;;;;1.50;1.27;;;22.10;51.70;;;;;;5056860;28;20444;-71
2024/01/24 01:41:10;;;;;;;1.40;1.20;;;22.10;51.70;;;;;;5056804;28;20887;-71
2024/01/24 01:43:38;;;;;;;2.13;1.40;;;22.10;51.70;;;;;;5052075;28;20503;-71
2024/01/24 01:46:11;;;;;;;1.40;1.30;;;22.10;51.70;;;;;;5047838;28;20447;-70
2024/01/24 01:48:39;;;;;;;2.03;1.07;;;22.10;51.80;;;;;;5052282;28;20450;-70
2024/01/24 01:51:08;;;;;;;3.00;1.40;;;22.00;51.70;;;;;;5048166;28;20454;-70
2024/01/24 01:53:38;;;;;;;1.47;1.33;;;22.10;51.70;;;;;;5047582;28;20498;-71
2024/01/24 01:56:11;;;;;;;4.20;1.37;;;22.00;51.60;;;;;;5052392;28;20458;-70
2024/01/24 01:58:40;;;;;;;3.50;1.50;;;22.00;51.60;;;;;;5053206;28;20902;-70
2024/01/24 02:01:10;;;;;;;2.10;1.67;;;22.00;51.70;;;;;;5053067;28;20453;-70
2024/01/24 02:03:45;;;;;;;1.17;1.07;;;22.00;51.70;;;;;;5047506;28;20459;-70
2024/01/24 02:06:14;;;;;;;2.13;1.20;;;22.00;51.70;;;;;;5059995;28;20473;-70
2024/01/24 02:08:44;;;;;;;2.23;1.40;;;22.00;51.60;;;;;;5048015;28;20489;-70
2024/01/24 02:11:14;;;;;;;1.87;1.40;;;22.00;51.70;;;;;;5047497;28;20577;-70
2024/01/24 02:13:42;;;;;;;1.30;0.90;;;22.00;51.70;;;;;;5047259;28;21007;-70
2024/01/24 02:16:13;;;;;;;2.20;1.40;;;22.00;51.70;;;;;;5049909;28;20464;-70
2024/01/24 02:18:46;;;;;;;1.70;1.33;;;22.00;51.80;;;;;;5052501;28;21005;-71
2024/01/24 02:21:14;;;;;;;1.57;1.30;;;21.90;51.80;;;;;;5039782;28;20972;-70
2024/01/24 02:23:44;;;;;;;1.30;1.20;;;21.90;51.70;;;;;;5045554;28;20457;-70
2024/01/24 02:26:15;;;;;;;1.00;0.90;;;21.90;51.80;;;;;;5047711;28;20459;-70
2024/01/24 02:28:43;;;;;;;1.53;1.30;;;21.90;51.80;;;;;;5046359;28;20453;-70
2024/01/24 02:31:11;;;;;;;2.67;1.50;;;21.90;51.80;;;;;;5045424;28;20508;-71
2024/01/24 02:33:39;;;;;;;1.20;0.80;;;21.90;51.60;;;;;;5048538;28;20466;-70
2024/01/24 02:36:09;;;;;;;1.97;1.20;;;21.90;51.70;;;;;;5045157;28;20455;-70
2024/01/24 02:38:37;;;;;;;0.70;0.70;;;21.90;51.70;;;;;;5046720;28;20459;-71
2024/01/24 02:41:07;;;;;;;3.17;1.37;;;21.90;51.80;;;;;;5047209;28;20463;-70
2024/01/24 02:43:37;;;;;;;3.77;1.07;;;21.90;51.70;;;;;;5047491;28;20848;-70
2024/01/24 02:46:05;;;;;;;1.50;1.23;;;21.90;51.70;;;;;;5048375;28;20472;-70
2024/01/24 02:48:33;;;;;;;1.20;0.97;;;21.80;51.80;;;;;;5050320;28;20460;-70
2024/01/24 02:51:02;;;;;;;2.00;1.87;;;21.80;51.80;;;;;;5045233;28;20455;-70
2024/01/24 02:53:30;;;;;;;0.90;0.90;;;21.80;51.70;;;;;;5046864;28;20480;-70
2024/01/24 02:55:58;;;;;;;1.27;1.17;;;21.80;51.70;;;;;;5044545;28;20496;-70
2024/01/24 02:58:27;;;;;;;1.93;1.03;;;21.80;51.70;;;;;;5076858;28;20472;-70
2024/01/24 03:00:56;;;;;;;1.70;1.00;;;21.80;51.80;;;;;;5045276;28;20971;-70
2024/01/24 03:03:25;;;;;;;1.20;1.00;;;21.80;51.70;;;;;;5045630;28;20480;-70
2024/01/24 03:05:53;;;;;;;1.50;0.83;;;21.80;51.80;;;;;;5055075;28;20801;-70
2024/01/24 03:08:21;;;;;;;1.43;0.97;;;21.80;51.70;;;;;;5052198;28;20811;-70
2024/01/24 03:10:49;;;;;;;1.43;1.00;;;21.80;51.80;;;;;;5048908;28;20503;-71
2024/01/24 03:13:18;;;;;;;1.27;1.00;;;21.80;51.80;;;;;;5048778;28;20475;-70
2024/01/24 03:15:47;;;;;;;0.80;0.80;;;21.70;51.70;;;;;;5046385;28;21013;-70
2024/01/24 03:18:17;;;;;;;1.30;1.07;;;21.80;51.70;;;;;;5045251;28;20855;-70
2024/01/24 03:20:46;;;;;;;1.00;0.80;;;21.70;51.70;;;;;;5047604;28;20543;-71
2024/01/24 03:23:16;;;;;;;1.23;0.90;;;21.70;51.70;;;;;;5051830;28;20451;-70
2024/01/24 03:25:45;;;;;;;1.43;0.70;;;21.70;51.70;;;;;;5051188;28;20531;-71
2024/01/24 03:28:13;;;;;;;1.07;1.00;;;21.70;51.70;;;;;;5050078;28;20454;-70
2024/01/24 03:30:41;;;;;;;1.20;0.83;;;21.70;51.60;;;;;;5048528;28;20536;-70
2024/01/24 03:33:09;;;;;;;1.93;1.33;;;21.70;51.70;;;;;;5050226;28;20472;-70
2024/01/24 03:35:39;;;;;;;1.53;1.43;;;21.70;51.70;;;;;;5040831;28;20889;-71
2024/01/24 03:38:07;;;;;;;2.00;1.13;;;21.70;51.90;;;;;;5042412;28;20453;-71
2024/01/24 03:40:35;;;;;;;1.77;0.97;;;21.60;51.90;;;;;;5048833;28;20457;-70
2024/01/24 03:43:05;;;;;;;1.33;0.73;;;21.60;51.80;;;;;;5051674;28;20475;-71
2024/01/24 03:45:33;;;;;;;1.60;0.87;;;21.60;51.80;;;;;;5045764;28;20809;-70
2024/01/24 03:48:01;;;;;;;1.40;0.73;;;21.60;51.90;;;;;;5051045;28;20462;-70
2024/01/24 03:50:30;;;;;;;1.33;1.03;;;21.60;51.80;;;;;;5045170;28;20474;-70
2024/01/24 03:53:01;;;;;;;1.53;1.10;;;21.60;51.90;;;;;;5043116;28;21107;-70
2024/01/24 03:55:29;;;;;;;2.37;1.10;;;21.60;51.90;;;;;;5048931;28;20469;-70
2024/01/24 03:57:57;;;;;;;1.20;0.90;;;21.60;51.80;;;;;;5059737;28;20438;-70
2024/01/24 04:00:26;;;;;;;0.87;0.87;;;21.60;51.80;;;;;;5047782;28;20491;-71
2024/01/24 04:02:54;;;;;;;1.13;0.90;;;21.60;51.90;;;;;;5043014;28;20517;-69
2024/01/24 04:05:23;;;;;;;1.00;0.90;;;21.60;51.90;;;;;;5049163;28;20460;-70
2024/01/24 04:07:51;;;;;;;1.80;1.43;;;21.60;51.90;;;;;;5043613;28;20505;-70
2024/01/24 04:10:21;;;;;;;1.83;1.07;;;21.60;52.00;;;;;;5050692;28;20991;-71
2024/01/24 04:12:49;;;;;;;1.43;0.90;;;21.60;51.90;;;;;;5046236;28;20475;-71
2024/01/24 04:15:18;;;;;;;0.80;0.70;;;21.60;52.00;;;;;;5048228;28;20454;-71
2024/01/24 04:17:46;;;;;;;1.30;0.90;;;21.50;52.00;;;;;;5050509;28;20450;-71
2024/01/24 04:20:14;;;;;;;1.37;0.93;;;21.50;52.00;;;;;;5046572;28;20472;-71
2024/01/24 04:22:42;;;;;;;1.43;1.33;;;21.60;52.00;;;;;;5047920;28;20449;-72
2024/01/24 04:25:11;;;;;;;1.73;0.90;;;21.60;52.10;;;;;;5045205;28;20944;-71
2024/01/24 04:27:41;;;;;;;1.07;0.90;;;21.60;52.00;;;;;;5043871;28;20551;-72
2024/01/24 04:30:10;;;;;;;0.90;0.90;;;21.60;52.00;;;;;;5046867;28;20589;-72
2024/01/24 04:32:39;;;;;;;1.20;0.90;;;21.60;52.10;;;;;;5046127;28;20449;-73
2024/01/24 04:35:08;;;;;;;2.33;1.37;;;21.60;52.10;;;;;;5049373;28;20466;-74
2024/01/24 04:37:36;;;;;;;1.17;1.07;;;21.70;51.80;;;;;;5045081;28;20487;-74
2024/01/24 04:40:06;;;;;;;1.73;1.00;;;21.80;51.80;;;;;;5046433;28;20502;-74
2024/01/24 04:42:35;;;;;;;1.90;1.33;;;21.80;51.70;;;;;;5050766;28;20462;-73
2024/01/24 04:45:05;;;;;;;1.60;1.20;;;21.90;51.70;;;;;;5053162;28;20454;-72
2024/01/24 04:47:33;;;;;;;1.33;1.17;;;21.90;51.60;;;;;;5044842;28;20458;-72
2024/01/24 04:50:02;;;;;;;1.30;1.00;;;22.00;51.40;;;;;;5038071;28;20855;-74
2024/01/24 04:52:30;;;;;;;2.40;1.10;;;22.10;51.40;;;;;;5042524;28;20457;-74
2024/01/24 04:54:58;;;;;;;2.33;1.20;;;22.10;51.30;;;;;;5049536;28;20472;-74
2024/01/24 04:57:27;;;;;;;0.97;0.70;;;22.20;51.20;;;;;;5050888;28;20546;-75
2024/01/24 04:59:55;;;;;;;2.07;1.13;;;22.20;51.20;;;;;;5049131;28;20459;-76
2024/01/24 05:02:26;;;;;;;1.40;0.80;;;22.20;51.00;;;;;;5055578;28;20536;-74
2024/01/24 05:04:54;;;;;;;1.03;0.80;;;22.30;50.90;;;;;;5052719;28;20511;-74
2024/01/24 05:07:22;;;;;;;1.03;0.80;;;22.40;50.90;;;;;;5041766;28;20502;-74
2024/01/24 05:09:51;;;;;;;1.37;0.70;;;22.40;50.80;;;;;;5036635;28;20590;-75
2024/01/24 05:12:19;;;;;;;1.43;0.83;;;22.50;50.80;;;;;;5049626;28;20905;-74
2024/01/24 05:14:47;;;;;;;1.17;1.00;;;22.50;50.70;;;;;;5043816;28;20505;-71
2024/01/24 05:17:15;;;;;;;0.70;0.70;;;22.50;50.70;;;;;;5043184;28;20537;-70
2024/01/24 05:19:45;;;;;;;1.57;1.47;;;22.50;50.60;;;;;;5048914;28;20539;-71
2024/01/24 05:22:14;;;;;;;1.23;1.13;;;22.50;50.60;;;;;;5052734;28;20477;-71
2024/01/24 05:24:44;;;;;;;1.80;1.00;;;22.50;50.60;;;;;;5054498;28;20465;-71
2024/01/24 05:27:13;;;;;;;0.60;0.60;;;22.50;50.60;;;;;;5048103;28;20447;-71
2024/01/24 05:29:45;;;;;;;0.60;0.57;;;22.50;50.70;;;;;;5052743;28;20838;-71
2024/01/24 05:32:13;;;;;;;1.40;1.03;;;22.40;50.80;;;;;;5049383;28;20963;-72
2024/01/24 05:34:42;;;;;;;1.30;0.67;;;22.40;50.90;;;;;;5054130;28;20471;-72
2024/01/24 05:37:12;;;;;;;1.10;0.83;;;22.40;50.90;;;;;;5056416;28;20460;-71
2024/01/24 05:39:41;;;;;;;1.53;1.20;;;22.30;51.00;;;;;;5056348;28;20465;-73
2024/01/24 05:42:10;;;;;;;1.20;1.03;;;22.30;51.10;;;;;;5051172;28;20526;-72
2024/01/24 05:44:38;;;;;;;0.80;0.77;;;22.30;51.00;;;;;;5039242;28;20488;-71
2024/01/24 05:47:07;;;;;;;1.00;0.70;;;22.20;51.10;;;;;;5051087;28;20961;-71
2024/01/24 05:49:36;;;;;;;0.60;0.60;;;22.20;51.20;;;;;;5051386;28;20458;-72
2024/01/24 05:52:05;;;;;;;1.10;1.00;;;22.20;51.10;;;;;;5059286;28;20509;-72
2024/01/24 05:54:35;;;;;;;1.00;0.80;;;22.10;51.20;;;;;;5052816;28;20826;-72
2024/01/24 05:57:04;;;;;;;1.73;0.97;;;22.10;51.30;;;;;;5060188;28;20689;-72
2024/01/24 05:59:32;;;;;;;0.67;0.67;;;22.10;51.40;;;;;;5049488;28;20461;-74
2024/01/24 06:02:01;;;;;;;1.43;0.93;;;22.10;51.70;;;;;;5055070;28;20465;-74
2024/01/24 06:04:29;;;;;;;1.70;0.87;;;22.10;51.90;;;;;;5059444;28;20947;-74
2024/01/24 06:07:00;;;;;;;1.57;0.83;;;22.10;52.00;;;;;;5054519;28;20462;-73
2024/01/24 06:09:29;;;;;;;1.30;0.80;;;22.10;52.20;;;;;;5052408;28;20507;-74
2024/01/24 06:11:59;;;;;;;2.43;1.00;;;22.10;52.30;;;;;;5052333;28;20454;-73
2024/01/24 06:14:27;;;;;;;2.10;0.90;;;22.10;52.50;;;;;;5048184;28;20484;-74
2024/01/24 06:16:56;;;;;;;2.57;0.90;;;22.10;52.70;;;;;;5048023;28;20456;-74
2024/01/24 06:19:24;;;;;;;1.13;0.70;;;22.10;52.70;;;;;;5049589;28;20453;-73
2024/01/24 06:21:53;;;;;;;2.20;1.00;;;22.20;52.60;;;;;;5043055;28;20641;-73
2024/01/24 06:24:21;;;;;;;0.70;0.70;;;22.20;52.50;;;;;;5042504;28;20558;-73
2024/01/24 06:26:50;;;;;;;2.50;0.90;;;22.30;52.60;;;;;;5038858;28;20505;-74
2024/01/24 06:29:20;;;;;;;2.20;0.97;;;22.30;52.70;;;;;;5045324;28;20462;-73
2024/01/24 06:32:08;;;;;;;5.10;1.00;;;22.30;52.60;;;;;;5041078;28;20889;-73
2024/01/24 06:34:36;;;;;;;0.77;0.77;;;22.30;52.60;;;;;;5039223;28;20462;-74
2024/01/24 06:37:05;;;;;;;1.17;0.77;;;22.30;52.80;;;;;;5046407;28;20476;-73
2024/01/24 06:39:33;;;;;;;1.77;0.90;;;22.40;52.70;;;;;;5058418;28;20449;-73
2024/01/24 06:42:02;;;;;;;3.00;0.80;;;22.40;52.70;;;;;;5045087;28;20458;-73
2024/01/24 06:44:31;;;;;;;1.87;0.80;;;22.40;52.50;;;;;;5064017;28;20458;-73
2024/01/24 06:47:00;;;;;;;1.20;0.80;;;22.40;52.60;;;;;;5048642;28;20548;-73
2024/01/24 06:49:28;;;;;;;3.30;1.27;;;22.40;52.70;;;;;;5049028;28;20477;-73
2024/01/24 06:51:56;;;;;;;0.80;0.80;;;22.40;52.80;;;;;;5050405;28;20523;-73
2024/01/24 06:54:25;;;;;;;1.50;1.13;;;22.40;52.70;;;;;;5046396;28;20531;-73
2024/01/24 06:56:54;;;;;;;1.10;0.90;;;22.30;52.80;;;;;;5056674;28;20466;-72
2024/01/24 06:59:22;;;;;;;0.73;0.70;;;22.30;52.60;;;;;;5052693;28;20433;-74
2024/01/24 07:01:52;;;;;;;0.90;0.83;;;22.30;52.70;;;;;;5053063;28;20829;-74
2024/01/24 07:04:20;;;;;;;2.73;1.27;;;22.30;52.90;;;;;;5054965;28;20456;-74
2024/01/24 07:06:49;;;;;;;2.03;1.13;;;22.30;52.90;;;;;;5044413;28;20481;-73
2024/01/24 07:09:18;;;;;;;1.80;0.70;;;22.20;52.80;;;;;;5043843;28;20468;-74
2024/01/24 07:11:46;;;;;;;2.77;1.30;;;22.20;52.80;;;;;;5041872;28;20470;-72
2024/01/24 07:14:15;;;;;;;7.50;1.70;;;22.20;53.30;;;;;;5040094;28;20458;-73
2024/01/24 07:16:44;;;;;;;2.53;1.13;;;22.20;53.70;;;;;;5041608;28;20470;-73
2024/01/24 07:19:14;;;;;;;3.40;1.23;;;22.20;53.40;;;;;;5035723;28;20478;-72
2024/01/24 07:21:43;;;;;;;3.40;1.67;;;22.20;53.30;;;;;;5047849;28;20476;-72
2024/01/24 07:24:11;;;;;;;1.53;1.40;;;22.20;53.20;;;;;;5046161;28;20477;-72
2024/01/24 07:26:39;;;;;;;4.40;1.97;;;22.20;53.20;;;;;;5047905;28;20451;-73
2024/01/24 07:29:07;;;;;;;2.83;1.10;;;22.20;53.40;;;;;;5041257;28;20850;-72
2024/01/24 07:31:35;;;;;;;4.07;1.57;;;22.20;53.20;;;;;;5043442;28;21009;-72
2024/01/24 07:34:04;;;;;;;1.03;0.93;;;22.20;53.20;;;;;;5046696;28;20463;-72
2024/01/24 07:36:33;;;;;;;1.50;1.23;;;22.30;53.20;;;;;;5050344;28;20827;-72
2024/01/24 07:39:04;;;;;;;3.07;2.07;;;22.30;53.30;;;;;;5061499;28;20985;-72
2024/01/24 07:41:33;;;;;;;1.90;1.73;;;22.30;53.20;;;;;;5057205;28;20485;-72
2024/01/24 07:44:02;;;;;;;8.93;2.23;;;22.40;53.10;;;;;;5060737;28;20453;-73
2024/01/24 07:46:32;;;;;;;3.87;1.77;;;22.40;53.10;;;;;;5047151;28;20814;-73
2024/01/24 07:49:01;;;;;;;2.47;1.20;;;22.40;52.90;;;;;;5043860;28;21044;-74
2024/01/24 07:51:29;;;;;;;4.20;1.67;;;22.50;52.70;;;;;;5041628;28;20480;-79
2024/01/24 07:53:59;;;;;;;1.97;1.40;;;22.50;53.50;;;;;;5041515;28;20459;-79
2024/01/24 07:56:27;;;;;;;4.10;2.00;;;22.50;53.70;;;;;;5058108;28;20545;-79
2024/01/24 07:58:55;;;;;;;4.93;1.80;;;22.50;53.70;;;;;;5035463;28;20552;-80
2024/01/24 08:01:24;;;;;;;3.13;1.67;;;22.50;53.40;;;;;;5038766;28;20471;-79
2024/01/24 08:04:48;;;;;;;2.40;1.50;;;22.50;53.60;;;;;;5043897;28;20448;-79
2024/01/24 08:07:18;;;;;;;3.47;2.03;;;22.40;53.70;;;;;;5036136;28;20492;-79
2024/01/24 08:09:49;;;;;;;4.70;2.00;;;22.40;53.70;;;;;;5046647;28;20470;-79
2024/01/24 08:12:18;;;;;;;3.93;1.70;;;22.40;53.80;;;;;;5048610;28;20966;-79
2024/01/24 08:14:46;;;;;;;4.30;1.60;;;22.40;53.80;;;;;;5044607;28;20810;-79
2024/01/24 08:17:15;;;;;;;1.53;1.00;;;22.40;53.70;;;;;;5042030;28;20462;-79
2024/01/24 08:19:44;;;;;;;2.47;1.80;;;22.40;53.80;;;;;;5040787;28;20466;-79
2024/01/24 08:22:14;;;;;;;3.23;1.23;;;22.30;53.90;;;;;;5034548;28;20841;-79
2024/01/24 08:24:44;;;;;;;2.10;1.30;;;22.30;53.80;;;;;;5042107;28;20546;-79
2024/01/24 08:27:14;;;;;;;2.03;1.43;;;22.30;54.00;;;;;;5040379;28;20455;-78
2024/01/24 08:29:43;;;;;;;3.70;1.67;;;22.30;54.00;;;;;;5047240;28;20503;-79
2024/01/24 08:32:11;;;;;;;4.10;2.13;;;22.30;54.20;;;;;;5046931;28;20465;-79
2024/01/24 08:34:39;;;;;;;3.40;1.93;;;22.30;54.30;;;;;;5044344;28;20461;-79
2024/01/24 08:37:09;;;;;;;1.90;1.20;;;22.30;54.30;;;;;;5042442;28;20470;-78
2024/01/24 08:39:38;;;;;;;2.57;1.40;;;22.30;54.60;;;;;;5051175;28;20453;-78
2024/01/24 08:42:07;;;;;;;2.20;1.37;;;22.30;54.80;;;;;;5044534;28;20461;-78
2024/01/24 08:44:37;;;;;;;3.30;1.30;;;22.40;54.80;;;;;;5032894;28;20467;-79
2024/01/24 08:47:05;;;;;;;1.57;1.33;;;22.40;55.00;;;;;;5043931;28;20516;-78
2024/01/24 08:49:34;;;;;;;2.90;1.67;;;22.50;55.00;;;;;;5046085;28;20446;-78
2024/01/24 08:52:03;;;;;;;2.77;1.50;;;22.50;55.20;;;;;;5048684;28;20450;-78
2024/01/24 08:54:31;;;;;;;3.00;1.60;;;22.50;55.70;;;;;;5040469;28;20461;-78
2024/01/24 08:57:01;;;;;;;1.73;1.40;;;22.50;55.60;;;;;;5049774;28;20553;-78
2024/01/24 08:59:29;;;;;;;5.93;2.17;;;22.60;56.00;;;;;;5042926;28;20904;-79
2024/01/24 09:02:01;;;;;;;1.20;1.10;;;22.60;55.80;;;;;;5042415;28;20508;-79
2024/01/24 09:04:29;;;;;;;2.70;1.33;;;22.60;55.90;;;;;;5050192;28;20516;-79
2024/01/24 09:06:58;;;;;;;2.20;1.33;;;22.60;56.00;;;;;;5044346;28;20483;-79
2024/01/24 09:09:30;;;;;;;3.83;1.47;;;22.60;56.00;;;;;;5046057;28;20919;-79
2024/01/24 09:11:59;;;;;;;4.37;1.27;;;22.60;56.00;;;;;;5053083;28;20492;-79
2024/01/24 09:14:27;;;;;;;2.03;1.47;;;22.60;55.90;;;;;;5053415;28;20463;-79
2024/01/24 09:16:56;;;;;;;1.93;1.20;;;22.60;56.10;;;;;;5047887;28;20470;-78
2024/01/24 09:19:25;;;;;;;1.97;1.30;;;22.50;56.00;;;;;;5051095;28;20537;-79
2024/01/24 09:21:54;;;;;;;1.20;1.10;;;22.50;56.20;;;;;;5047698;28;20454;-78
2024/01/24 09:24:22;;;;;;;1.30;1.20;;;22.50;56.10;;;;;;5048492;28;20453;-79
2024/01/24 09:26:51;;;;;;;2.23;1.30;;;22.50;56.00;;;;;;5046928;28;20469;-79
2024/01/24 09:29:19;;;;;;;2.40;1.53;;;22.50;56.00;;;;;;5045606;28;20541;-79
2024/01/24 09:31:48;;;;;;;3.23;1.50;;;22.40;56.10;;;;;;5042653;28;20470;-78
2024/01/24 09:34:16;;;;;;;4.37;1.20;;;22.40;55.90;;;;;;5047459;28;20462;-78
2024/01/24 09:36:47;;;;;;;3.70;2.33;;;22.40;55.90;;;;;;5050073;28;20840;-78
2024/01/24 09:39:15;;;;;;;1.30;1.07;;;22.40;55.90;;;;;;5050432;28;20454;-78
2024/01/24 09:41:44;;;;;;;4.27;1.47;;;22.40;56.00;;;;;;5039979;28;20483;-78
2024/01/24 09:44:14;;;;;;;2.50;1.47;;;22.40;55.90;;;;;;5048393;28;20467;-78
2024/01/24 09:46:42;;;;;;;1.43;1.00;;;22.40;55.90;;;;;;5038862;28;20495;-78
2024/01/24 09:49:11;;;;;;;1.50;1.00;;;22.50;56.10;;;;;;5045258;28;20999;-78
2024/01/24 09:51:41;;;;;;;1.40;1.30;;;22.50;56.10;;;;;;5048725;28;20514;-78
2024/01/24 09:54:11;;;;;;;1.73;0.90;;;22.50;56.10;;;;;;5049719;28;20463;-79
2024/01/24 09:56:40;;;;;;;4.13;1.10;;;22.60;56.30;;;;;;5050071;28;20470;-78
2024/01/24 09:59:09;;;;;;;1.83;1.10;;;22.60;56.20;;;;;;5037527;28;20467;-79
2024/01/24 10:01:39;;;;;;;1.50;1.00;;;22.70;56.40;;;;;;5042378;28;20786;-78
2024/01/24 10:04:09;;;;;;;1.37;1.07;;;22.70;56.40;;;;;;5049541;28;20460;-79
2024/01/24 10:06:40;;;;;;;1.27;1.17;;;22.80;56.30;;;;;;5043537;28;20466;-79
2024/01/24 10:09:10;;;;;;;1.17;1.07;;;22.80;56.20;;;;;;5046689;28;20483;-79
2024/01/24 10:11:38;;;;;;;1.27;1.17;;;22.80;56.20;;;;;;5049593;28;20451;-78
2024/01/24 10:14:07;;;;;;;1.90;1.00;;;22.80;56.30;;;;;;5044120;28;20454;-78
2024/01/24 10:16:36;;;;;;;3.03;1.30;;;22.90;56.10;;;;;;5058791;28;20467;-79
2024/01/24 10:19:06;;;;;;;2.83;1.20;;;22.90;55.90;;;;;;5068943;28;21003;-79
2024/01/24 10:21:35;;;;;;;2.20;1.00;;;22.90;55.90;;;;;;5056582;28;20467;-78
2024/01/24 10:24:04;;;;;;;1.17;1.07;;;22.90;55.90;;;;;;5046783;28;20459;-79
2024/01/24 10:26:34;;;;;;;0.87;0.87;;;22.80;55.70;;;;;;5050284;28;20459;-79
2024/01/24 10:29:05;;;;;;;1.83;0.83;;;22.80;55.70;;;;;;5042749;28;20459;-79
2024/01/24 10:31:34;;;;;;;1.00;0.90;;;22.80;55.50;;;;;;5052176;28;20910;-78
2024/01/24 10:34:04;;;;;;;2.73;0.83;;;22.70;55.70;;;;;;5041439;28;20541;-79
2024/01/24 10:36:33;;;;;;;2.10;1.20;;;22.70;55.50;;;;;;5041213;28;20785;-79
2024/01/24 10:39:03;;;;;;;3.03;1.00;;;22.70;55.70;;;;;;5048425;28;20462;-79
2024/01/24 10:41:37;;;;;;;4.97;1.30;;;22.70;55.80;;;;;;5034512;28;20553;-79
2024/01/24 10:44:09;;;;;;;1.73;1.37;;;22.60;55.60;;;;;;5046820;28;20478;-78
2024/01/24 10:46:40;;;;;;;1.40;1.30;;;22.60;55.50;;;;;;5042591;28;20461;-79
2024/01/24 10:49:12;;;;;;;3.33;1.20;;;22.60;55.70;;;;;;5042341;28;20930;-79
2024/01/24 10:51:43;;;;;;;2.30;1.10;;;22.50;55.60;;;;;;5049363;28;20462;-79
2024/01/24 10:54:13;;;;;;;1.20;0.80;;;22.50;55.60;;;;;;5046745;28;20943;-79
2024/01/24 10:56:47;;;;;;;2.13;0.93;;;22.50;55.60;;;;;;5051150;28;20559;-79
2024/01/24 10:59:15;;;;;;;1.60;1.03;;;22.50;55.60;;;;;;5045879;28;20538;-79
2024/01/24 11:01:44;;;;;;;1.13;1.00;;;22.50;55.60;;;;;;5052299;28;20443;-79
2024/01/24 11:04:19;;;;;;;2.00;0.80;;;22.50;55.60;;;;;;5050879;28;20476;-79
2024/01/24 11:06:53;;;;;;;1.00;0.90;;;22.50;55.50;;;;;;5048548;28;20454;-79
2024/01/24 11:09:27;;;;;;;2.23;1.63;;;22.60;55.50;;;;;;5044936;28;20937;-79
2024/01/24 11:11:58;;;;;;;0.80;0.77;;;22.60;55.40;;;;;;5048252;28;21004;-79
2024/01/24 11:14:30;;;;;;;2.00;1.10;;;22.70;55.30;;;;;;5052540;28;20898;-78
2024/01/24 11:16:59;;;;;;;0.90;0.90;;;22.70;55.10;;;;;;5049526;28;20968;-78
2024/01/24 11:19:29;;;;;;;1.00;0.80;;;22.80;55.10;;;;;;5041718;28;20817;-79
2024/01/24 11:22:03;;;;;;;2.17;0.93;;;22.80;55.10;;;;;;5042016;28;20463;-79
2024/01/24 11:24:52;;;;;;;0.73;0.60;;;22.80;55.10;;;;;;5042015;28;20450;-79
2024/01/24 11:27:32;;;;;;;1.27;1.10;;;22.80;55.00;;;;;;5036527;28;20523;-79
2024/01/24 11:30:16;;;;;;;1.17;1.07;;;22.80;54.70;;;;;;5036251;28;20586;-79
2024/01/24 11:32:58;;;;;;;1.90;0.90;;;22.80;54.70;;;;;;5038625;28;20499;-79
2024/01/24 11:35:37;;;;;;;1.47;0.87;;;22.80;54.80;;;;;;5041644;28;20443;-78
2024/01/24 11:38:08;;;;;;;1.33;1.07;;;22.80;54.60;;;;;;5040876;28;20940;-79
2024/01/24 11:40:52;;;;;;;1.37;1.27;;;22.80;54.30;;;;;;5053799;28;20445;-78
2024/01/24 11:43:26;;;;;;;1.80;1.03;;;22.80;54.40;;;;;;5052391;28;20458;-79
2024/01/24 11:45:55;;;;;;;1.83;1.17;;;22.80;54.30;;;;;;5051806;28;20449;-79
2024/01/24 11:48:26;;;;;;;1.10;0.90;;;22.80;54.30;;;;;;5053410;28;20447;-79
2024/01/24 11:50:57;;;;;;;1.10;1.00;;;22.70;54.50;;;;;;5035059;28;20470;-79
2024/01/24 11:53:25;;;;;;;0.80;0.80;;;22.70;54.40;;;;;;5060439;28;20455;-65
2024/01/24 11:55:56;;;;;;;2.30;1.07;;;22.70;54.50;;;;;;5043833;28;20459;-71
2024/01/24 11:58:28;;;;;;;3.30;1.13;;;22.70;54.70;;;;;;5048618;28;20482;-71
2024/01/24 12:00:57;;;;;;;1.63;0.90;;;22.70;55.10;;;;;;5044500;28;20459;-72
2024/01/24 12:03:26;;;;;;;1.07;0.87;;;22.70;55.00;;;;;;5045231;28;20481;-72
2024/01/24 12:05:54;;;;;;;2.00;0.90;;;22.70;55.00;;;;;;5051889;28;20458;-73
2024/01/24 12:08:23;;;;;;;2.43;1.10;;;22.70;55.30;;;;;;5049356;28;20509;-71
2024/01/24 12:10:52;;;;;;;2.00;0.90;;;22.80;55.40;;;;;;5053577;28;20447;-71
2024/01/24 12:13:23;;;;;;;1.70;0.80;;;22.80;55.40;;;;;;5048625;28;20443;-71
2024/01/24 12:15:54;;;;;;;1.90;1.10;;;22.90;55.60;;;;;;5053039;28;20453;-70
2024/01/24 12:18:24;;;;;;;1.30;1.20;;;22.90;55.50;;;;;;5045933;28;20474;-71
2024/01/24 12:20:55;;;;;;;3.40;1.23;;;22.90;55.50;;;;;;5042920;28;20818;-71
2024/01/24 12:23:28;;;;;;;2.13;0.80;;;23.00;55.70;;;;;;5036475;28;20443;-72
2024/01/24 12:25:58;;;;;;;1.83;1.23;;;23.00;55.60;;;;;;5049606;28;20455;-71
2024/01/24 12:28:27;;;;;;;1.77;1.40;;;23.10;55.70;;;;;;5048516;28;20542;-71
2024/01/24 12:30:58;;;;;;;1.47;1.10;;;23.10;55.70;;;;;;5048659;28;20451;-70
2024/01/24 12:33:33;;;;;;;1.00;0.90;;;23.10;55.70;;;;;;5050796;28;20464;-70
2024/01/24 12:36:05;;;;;;;3.13;0.90;;;23.10;55.80;;;;;;5051955;28;20454;-71
2024/01/24 12:38:36;;;;;;;0.70;0.70;;;23.20;55.70;;;;;;5046606;28;20472;-71
2024/01/24 12:41:05;;;;;;;1.07;0.90;;;23.20;55.60;;;;;;5043719;28;20467;-73
2024/01/24 12:43:37;;;;;;;1.53;0.90;;;23.20;55.70;;;;;;5049222;28;20969;-72
2024/01/24 12:46:08;;;;;;;1.37;1.00;;;23.20;55.80;;;;;;5050105;28;20556;-72
2024/01/24 12:48:38;;;;;;;0.80;0.80;;;23.20;55.80;;;;;;5046053;28;20918;-73
2024/01/24 12:51:07;;;;;;;1.23;1.13;;;23.20;55.70;;;;;;5045322;28;20465;-73
2024/01/24 12:53:36;;;;;;;2.53;1.03;;;23.20;55.80;;;;;;5050151;28;20453;-73
2024/01/24 12:56:05;;;;;;;4.03;1.03;;;23.20;55.80;;;;;;5045073;28;20459;-74
2024/01/24 12:58:34;;;;;;;3.37;1.00;;;23.20;55.80;;;;;;5047629;28;20475;-72
2024/01/24 13:01:03;;;;;;;1.17;1.07;;;23.20;55.60;;;;;;5045344;28;20466;-72